Terminal Aerodrome Forecast
Issued by NWS Grand Forks, ND

Home | Current Version | Previous Version | Graphics & Text | Print | Product List | Glossary On
Versions: 1 2 3 4 5 6 7 8 9 10 11 12 13
382
FTUS43 KFGF 020520
TAFGFK
TAF
KGFK 020520Z 0206/0306 14004KT P6SM SKC
     FM020700 VRB03KT P6SM FEW250
     FM021300 21004KT P6SM SCT200=

USA.gov is the U.S. government's official web portal to all federal, state and local government web resources and services.